Time;durP1;ratioP1;P1;durP2;ratioP2;P2;SDS_P1;SDS_P2;PMS_P1;PMS_P2;Temp;Humidity;BMP_temperature;BMP_pressure;BME280_temperature;BME280_humidity;BME280_pressure;Samples;Min_cycle;Max_cycle;Signal;HPM_P1;HPM_P2
2022/03/18 00:03:02;;;;;;;16.20;8.50;;;;;;;1.61;45.76;101972.59;215457;1274;139447;-70
2022/03/18 00:08:10;;;;;;;17.30;8.20;;;;;;;1.57;45.95;101976.47;214644;1274;139338;-68
2022/03/18 00:13:15;;;;;;;14.70;8.70;;;;;;;1.53;45.90;101975.93;216222;1274;139103;-69
2022/03/18 00:18:19;;;;;;;14.50;8.90;;;;;;;1.48;46.23;101978.08;215084;1274;139539;-71
2022/03/18 00:23:23;;;;;;;19.10;9.50;;;;;;;1.46;46.06;101981.06;215825;1273;140409;-71
2022/03/18 00:28:29;;;;;;;13.20;9.00;;;;;;;1.43;46.14;101978.13;215738;1274;139917;-73
2022/03/18 00:33:34;;;;;;;13.60;7.30;;;;;;;1.39;46.41;101986.11;215850;1274;141548;-70
2022/03/18 00:38:39;;;;;;;17.00;9.10;;;;;;;1.34;46.44;101993.31;215992;1272;139742;-69
2022/03/18 00:43:43;;;;;;;18.40;10.40;;;;;;;1.28;46.53;101982.24;215845;1273;141372;-68
2022/03/18 00:54:10;;;;;;;14.80;10.30;;;;;;;1.18;46.67;101985.30;214886;1274;141493;-72
2022/03/18 00:59:15;;;;;;;20.50;9.40;;;;;;;1.10;47.24;101982.95;214967;1273;140619;-71
2022/03/18 01:04:21;;;;;;;19.80;8.60;;;;;;;1.05;47.06;101977.76;215305;1274;140226;-72
2022/03/18 01:09:27;;;;;;;18.90;9.20;;;;;;;1.01;47.46;101975.63;215290;1273;139507;-71
2022/03/18 01:14:32;;;;;;;13.50;8.30;;;;;;;0.96;47.40;101980.02;213906;1274;139346;-69
2022/03/18 01:19:36;;;;;;;14.00;7.80;;;;;;;0.91;47.43;101972.70;214159;1274;139460;-71
2022/03/18 01:24:40;;;;;;;17.00;9.60;;;;;;;0.88;47.70;101984.66;214761;1274;139830;-73
2022/03/18 01:29:45;;;;;;;14.90;8.30;;;;;;;0.83;47.46;101982.40;213724;1274;139188;-70
2022/03/18 01:34:50;;;;;;;17.10;8.50;;;;;;;0.79;47.79;101991.14;213544;1274;139271;-71
2022/03/18 01:39:54;;;;;;;18.00;8.90;;;;;;;0.75;48.08;101994.80;214031;1274;139094;-68
2022/03/18 01:44:58;;;;;;;16.50;9.20;;;;;;;0.69;48.06;101993.85;214458;1274;140514;-69
2022/03/18 01:50:03;;;;;;;16.90;8.90;;;;;;;0.64;48.25;101998.07;214865;1274;140359;-67
2022/03/18 01:55:07;;;;;;;14.20;9.00;;;;;;;0.61;48.24;102008.48;214821;1274;139807;-76
2022/03/18 02:00:12;;;;;;;19.70;9.10;;;;;;;0.55;48.59;102008.36;214250;1274;139974;-75
2022/03/18 02:05:18;;;;;;;18.00;10.50;;;;;;;0.49;48.41;102006.00;215186;1274;140629;-70
2022/03/18 02:10:22;;;;;;;20.50;10.80;;;;;;;0.43;48.35;101995.77;215450;1274;141653;-71
2022/03/18 02:15:26;;;;;;;24.00;10.60;;;;;;;0.40;48.62;101993.54;215205;1274;139452;-76
2022/03/18 02:20:31;;;;;;;14.00;8.80;;;;;;;0.39;48.85;101993.64;215598;1274;141293;-73
2022/03/18 02:25:36;;;;;;;17.50;11.60;;;;;;;0.36;48.67;102007.16;216273;1274;140110;-73
2022/03/18 02:30:41;;;;;;;16.00;8.60;;;;;;;0.34;48.94;102013.90;216386;1273;141827;-69
2022/03/18 02:35:46;;;;;;;27.50;11.00;;;;;;;0.30;48.65;102020.30;215422;1274;140016;-73
2022/03/18 02:40:50;;;;;;;19.90;10.80;;;;;;;0.27;48.90;102025.14;215162;1273;139666;-71
2022/03/18 02:45:54;;;;;;;16.70;9.80;;;;;;;0.21;49.01;102035.87;214983;1271;141098;-75
2022/03/18 02:50:58;;;;;;;15.60;7.90;;;;;;;0.14;49.20;102039.39;214896;1274;139651;-72
2022/03/18 02:56:04;;;;;;;13.00;7.20;;;;;;;0.07;49.14;102046.86;215589;1274;139449;-70
2022/03/18 03:01:09;;;;;;;18.00;8.50;;;;;;;0.03;49.27;102052.77;214449;1274;139020;-72
2022/03/18 03:11:37;;;;;;;15.40;10.80;;;;;;;-0.09;49.45;102059.58;214256;1274;140876;-70
2022/03/18 03:16:48;;;;;;;12.60;8.30;;;;;;;-0.14;49.43;102063.21;214021;1274;141360;-67
2022/03/18 03:21:52;;;;;;;17.10;8.30;;;;;;;-0.18;49.67;102063.55;214232;1274;161880;-69
2022/03/18 03:26:56;;;;;;;13.80;10.00;;;;;;;-0.23;49.65;102067.75;214120;1274;140355;-68
2022/03/18 03:32:02;;;;;;;11.50;8.00;;;;;;;-0.25;49.77;102071.86;213761;1273;139717;-69
2022/03/18 03:37:06;;;;;;;16.20;9.90;;;;;;;-0.27;49.83;102078.70;214833;1274;139635;-70
2022/03/18 03:42:10;;;;;;;19.70;12.00;;;;;;;-0.30;49.85;102085.73;214772;1274;139516;-70
2022/03/18 03:47:15;;;;;;;18.00;8.90;;;;;;;-0.34;49.99;102088.08;214342;1272;140394;-69
2022/03/18 03:52:20;;;;;;;15.10;8.60;;;;;;;-0.38;50.05;102091.46;213790;1274;139670;-69
2022/03/18 03:57:25;;;;;;;15.00;9.90;;;;;;;-0.42;50.24;102091.06;213969;1274;139702;-69
2022/03/18 04:02:30;;;;;;;18.90;9.70;;;;;;;-0.44;50.34;102104.14;214215;1274;142666;-72
2022/03/18 04:07:36;;;;;;;18.60;11.10;;;;;;;-0.47;50.49;102112.19;214169;1274;142115;-73
2022/03/18 04:12:42;;;;;;;18.00;13.10;;;;;;;-0.49;50.34;102115.16;214835;1273;141967;-75
2022/03/18 04:17:48;;;;;;;12.90;9.60;;;;;;;-0.52;50.63;102121.66;214234;1274;162410;-68
2022/03/18 04:22:53;;;;;;;17.90;10.30;;;;;;;-0.53;50.49;102127.66;214982;1274;140445;-69
2022/03/18 04:27:59;;;;;;;13.80;9.30;;;;;;;-0.54;50.52;102126.33;215592;1274;140102;-69
2022/03/18 04:33:03;;;;;;;12.10;8.70;;;;;;;-0.54;50.75;102130.65;215947;1274;140061;-70
2022/03/18 04:38:07;;;;;;;13.30;7.50;;;;;;;-0.54;50.87;102133.96;216262;1273;141138;-79
2022/03/18 04:43:12;;;;;;;15.10;8.70;;;;;;;-0.51;50.82;102135.34;216195;1274;139122;-77
2022/03/18 04:48:16;;;;;;;18.20;9.80;;;;;;;-0.48;50.87;102140.90;215564;1274;140640;-78
2022/03/18 04:53:20;;;;;;;19.00;9.80;;;;;;;-0.44;50.82;102139.98;214962;1274;139592;-74
2022/03/18 04:58:24;;;;;;;15.30;9.00;;;;;;;-0.43;50.83;102140.77;215084;1274;140297;-77
2022/03/18 05:03:29;;;;;;;15.20;8.70;;;;;;;-0.43;51.11;102140.40;215140;1273;139695;-67
2022/03/18 05:08:33;;;;;;;12.60;8.50;;;;;;;-0.42;51.15;102151.14;214021;1274;139989;-72
2022/03/18 05:13:38;;;;;;;13.10;6.60;;;;;;;-0.39;51.46;102151.10;213991;1274;139510;-75
2022/03/18 05:18:43;;;;;;;19.10;9.70;;;;;;;-0.31;51.55;102156.38;214543;1274;139870;-76
2022/03/18 05:23:47;;;;;;;17.20;8.80;;;;;;;-0.25;51.30;102163.41;213601;1273;139588;-77
2022/03/18 05:28:51;;;;;;;18.20;11.40;;;;;;;-0.15;50.99;102166.60;214429;1274;140446;-75
2022/03/18 05:33:55;;;;;;;16.10;10.30;;;;;;;-0.02;51.04;102170.80;213568;1274;140132;-72
2022/03/18 05:39:00;;;;;;;15.00;8.70;;;;;;;0.11;50.80;102170.53;214529;1274;221434;-76
2022/03/18 05:44:05;;;;;;;20.10;9.20;;;;;;;0.21;50.73;102175.42;213587;1274;139412;-72
2022/03/18 05:49:14;;;;;;;36.60;18.10;;;;;;;0.26;50.49;102178.73;214248;1274;141479;-72
2022/03/18 05:54:19;;;;;;;26.40;12.30;;;;;;;0.35;50.49;102187.20;213834;1273;140474;-70
2022/03/18 05:59:25;;;;;;;21.20;10.20;;;;;;;0.44;49.91;102191.33;214002;1273;140287;-70
2022/03/18 06:04:31;;;;;;;13.80;8.70;;;;;;;0.56;50.13;102199.67;213750;1274;139935;-76
2022/03/18 06:14:59;;;;;;;12.50;7.00;;;;;;;0.89;49.37;102208.16;214376;1274;139819;-73
2022/03/18 06:20:04;;;;;;;14.30;7.60;;;;;;;1.04;49.24;102216.67;214506;1274;140842;-77
2022/03/18 06:25:09;;;;;;;10.60;6.50;;;;;;;1.19;49.20;102218.38;215283;1274;140339;-76
2022/03/18 06:30:14;;;;;;;9.70;6.10;;;;;;;1.33;48.65;102223.45;215038;1274;139739;-73
2022/03/18 06:35:18;;;;;;;9.30;6.10;;;;;;;1.50;48.51;102224.30;215086;1271;140004;-71
2022/03/18 06:40:22;;;;;;;12.80;6.80;;;;;;;1.65;47.75;102228.55;216109;1274;140267;-70
2022/03/18 06:45:27;;;;;;;12.20;7.50;;;;;;;1.83;47.72;102234.89;216166;1274;140047;-72
2022/03/18 06:50:31;;;;;;;22.60;8.00;;;;;;;1.99;46.82;102231.73;216200;1273;141020;-75
2022/03/18 06:55:35;;;;;;;11.50;6.80;;;;;;;2.15;46.39;102235.57;216144;1274;139380;-72
2022/03/18 07:00:45;;;;;;;10.90;6.30;;;;;;;2.28;46.45;102239.86;214851;1274;140782;-72
2022/03/18 07:05:50;;;;;;;12.50;6.30;;;;;;;2.38;45.43;102241.35;214691;1274;140045;-72
2022/03/18 07:10:54;;;;;;;13.90;7.00;;;;;;;2.44;45.51;102239.77;213667;1274;140205;-75
2022/03/18 07:17:54;;;;;;;9.00;4.60;;;;;;;2.57;44.91;102254.59;214427;1274;139288;-71
2022/03/18 07:21:23;;;;;;;32.70;11.40;;;;;;;2.69;44.89;102256.23;215241;1274;140721;-70
2022/03/18 07:26:28;;;;;;;11.90;6.90;;;;;;;2.74;44.60;102255.48;214570;1274;140454;-75
2022/03/18 07:31:32;;;;;;;15.20;10.90;;;;;;;2.78;44.14;102250.06;214204;1274;139050;-73
2022/03/18 07:36:36;;;;;;;16.20;7.40;;;;;;;2.90;44.67;102256.45;214664;1274;141060;-71
2022/03/18 07:41:41;;;;;;;15.10;9.30;;;;;;;3.10;44.61;102255.73;214257;1274;139714;-76
2022/03/18 07:46:45;;;;;;;17.10;8.10;;;;;;;3.19;43.87;102258.71;214586;1274;139120;-77
2022/03/18 07:51:49;;;;;;;9.80;5.30;;;;;;;3.33;43.81;102264.04;213497;1274;139606;-65
2022/03/18 07:56:54;;;;;;;8.50;7.60;;;;;;;3.42;43.35;102263.80;213924;1274;140578;-75
2022/03/18 08:01:58;;;;;;;12.50;7.20;;;;;;;3.58;43.34;102268.84;213425;1274;139873;-76
2022/03/18 08:07:03;;;;;;;7.70;6.10;;;;;;;3.82;42.75;102272.27;214409;1274;141269;-73
2022/03/18 08:12:08;;;;;;;12.10;7.30;;;;;;;4.02;42.49;102272.08;215425;1274;139848;-71
2022/03/18 08:17:13;;;;;;;15.20;6.60;;;;;;;4.48;42.34;102271.45;214257;1274;140217;-75
2022/03/18 08:22:20;;;;;;;12.10;7.60;;;;;;;5.37;41.92;102271.80;213967;1274;162845;-72
2022/03/18 08:27:24;;;;;;;9.90;5.70;;;;;;;6.02;40.70;102277.09;214434;1273;140948;-68
2022/03/18 08:32:29;;;;;;;12.90;6.20;;;;;;;6.20;39.58;102265.70;214603;1274;140466;-64
2022/03/18 08:42:57;;;;;;;17.00;7.60;;;;;;;6.55;39.33;102282.75;214892;1274;139688;-71
2022/03/18 08:48:02;;;;;;;17.30;6.10;;;;;;;6.73;39.28;102287.33;216184;1274;139775;-70
2022/03/18 08:53:09;;;;;;;8.10;6.30;;;;;;;7.10;39.24;102291.13;216083;1274;139609;-70
2022/03/18 08:58:15;;;;;;;8.40;6.20;;;;;;;7.49;38.32;102299.81;216153;1274;140358;-77
2022/03/18 09:03:20;;;;;;;7.60;6.60;;;;;;;7.62;37.61;102300.26;215982;1274;141409;-69
2022/03/18 09:08:25;;;;;;;7.50;3.90;;;;;;;7.86;37.34;102299.66;214710;1274;140909;-71
2022/03/18 09:13:33;;;;;;;10.60;7.30;;;;;;;8.14;36.89;102309.24;215297;1274;139870;-69
2022/03/18 09:18:38;;;;;;;8.60;5.60;;;;;;;8.18;36.39;102314.30;214866;1274;140255;-71
2022/03/18 09:23:42;;;;;;;10.00;5.70;;;;;;;8.27;36.08;102310.11;215061;1274;139958;-71
2022/03/18 09:28:46;;;;;;;13.70;7.10;;;;;;;8.36;36.00;102314.72;214604;1274;140563;-67
2022/03/18 09:33:50;;;;;;;19.40;8.00;;;;;;;8.43;35.40;102316.00;214572;1274;140521;-77
2022/03/18 09:38:55;;;;;;;9.30;6.00;;;;;;;8.51;35.89;102310.37;214319;1274;139995;-68
2022/03/18 09:44:00;;;;;;;7.70;5.30;;;;;;;8.64;35.42;102310.45;214354;1274;139569;-71
2022/03/18 09:49:11;;;;;;;6.50;5.00;;;;;;;8.71;34.87;102313.75;214246;1274;139355;-71
2022/03/18 09:54:17;;;;;;;13.50;7.80;;;;;;;8.77;35.01;102317.16;212776;1274;838271;-68
2022/03/18 09:59:23;;;;;;;8.90;5.80;;;;;;;8.86;34.44;102325.55;214971;1274;139406;-70
2022/03/18 10:04:27;;;;;;;12.50;7.00;;;;;;;8.83;34.13;102331.33;214233;1274;140175;-69
2022/03/18 10:09:31;;;;;;;8.00;6.30;;;;;;;8.93;34.59;102336.11;213842;1274;139568;-70
2022/03/18 10:14:34;;;;;;;10.30;7.70;;;;;;;9.06;34.28;102339.66;213794;1274;140471;-72
2022/03/18 10:19:46;;;;;;;8.50;6.90;;;;;;;9.20;34.03;102340.55;214209;1274;139185;-68
2022/03/18 10:24:51;;;;;;;6.60;5.20;;;;;;;9.30;33.84;102334.48;215163;1274;139486;-75
2022/03/18 10:29:56;;;;;;;10.10;6.70;;;;;;;9.37;33.61;102336.58;215542;1274;140053;-75
2022/03/18 10:40:34;;;;;;;10.70;7.70;;;;;;;9.60;33.25;102333.77;215910;1274;139549;-74
2022/03/18 10:45:38;;;;;;;10.80;7.10;;;;;;;9.71;32.92;102336.76;215315;1274;140224;-74
2022/03/18 10:50:45;;;;;;;8.20;6.60;;;;;;;9.77;33.13;102331.34;216043;1274;139551;-65
2022/03/18 10:55:51;;;;;;;7.10;4.50;;;;;;;9.90;32.87;102335.28;215674;1274;140939;-70
2022/03/18 11:00:58;;;;;;;12.80;7.20;;;;;;;10.05;32.85;102336.05;216156;1274;140231;-73
2022/03/18 11:06:11;;;;;;;7.60;5.90;;;;;;;10.25;32.90;102332.55;215945;1274;140869;-75
2022/03/18 11:11:21;;;;;;;11.80;6.50;;;;;;;10.25;32.41;102331.98;215046;1274;162547;-70
2022/03/18 11:16:38;;;;;;;9.30;5.90;;;;;;;10.17;31.74;102325.23;215213;1273;140230;-70
2022/03/18 11:21:52;;;;;;;5.70;4.90;;;;;;;10.11;31.44;102325.02;215630;1274;140373;-69
2022/03/18 11:26:57;;;;;;;10.50;5.90;;;;;;;10.06;31.81;102330.19;214846;1274;140529;-71
2022/03/18 11:32:10;;;;;;;11.10;6.60;;;;;;;10.03;31.74;102328.73;214910;1274;141340;-68
2022/03/18 11:37:14;;;;;;;11.90;8.70;;;;;;;10.04;32.07;102329.99;214490;1274;141539;-74
2022/03/18 11:42:20;;;;;;;12.60;5.80;;;;;;;10.06;32.07;102334.99;214930;1273;140951;-72
2022/03/18 11:47:31;;;;;;;9.50;5.60;;;;;;;10.08;32.14;102333.61;213703;1274;142735;-72
2022/03/18 11:52:57;;;;;;;7.20;5.10;;;;;;;10.20;32.44;102331.12;214357;1274;142515;-76
2022/03/18 11:58:24;;;;;;;11.80;5.80;;;;;;;10.24;31.78;102332.78;214344;1274;140899;-71
2022/03/18 12:03:36;;;;;;;7.50;5.10;;;;;;;10.20;31.51;102336.61;213743;1274;141319;-71
2022/03/18 12:08:53;;;;;;;8.10;6.80;;;;;;;10.18;31.55;102334.50;214127;1274;150775;-74
2022/03/18 12:13:57;;;;;;;8.30;5.20;;;;;;;10.23;31.81;102337.52;214356;1274;142754;-71
2022/03/18 12:19:09;;;;;;;11.40;5.60;;;;;;;10.15;31.41;102332.55;213994;1274;142651;-72
2022/03/18 12:24:14;;;;;;;7.80;5.70;;;;;;;10.09;31.39;102331.70;214415;1274;141550;-70
2022/03/18 12:29:26;;;;;;;10.40;6.60;;;;;;;10.22;31.58;102333.25;213425;1274;142487;-75
2022/03/18 12:34:30;;;;;;;21.90;7.00;;;;;;;10.23;31.59;102335.19;214390;1274;140578;-67
2022/03/18 12:39:34;;;;;;;6.60;5.70;;;;;;;10.18;31.27;102325.13;215325;1276;144059;-75
2022/03/18 12:44:45;;;;;;;4.70;4.10;;;;;;;10.19;31.08;102325.48;215234;1274;141109;-75
2022/03/18 12:49:51;;;;;;;8.40;6.00;;;;;;;10.14;30.72;102327.27;214991;1274;140265;-70
2022/03/18 12:55:05;;;;;;;8.20;5.00;;;;;;;10.14;31.12;102322.34;214929;1274;140153;-73
2022/03/18 13:00:11;;;;;;;7.90;5.70;;;;;;;10.21;30.89;102325.16;215803;1274;139136;-76
2022/03/18 13:05:38;;;;;;;12.20;6.00;;;;;;;10.11;30.51;102322.48;215940;1277;140781;-77
2022/03/18 13:10:54;;;;;;;8.10;6.10;;;;;;;10.13;31.10;102330.19;215110;1274;140794;-75
2022/03/18 13:16:01;;;;;;;12.00;7.50;;;;;;;10.11;30.50;102325.27;213749;1274;139633;-74
2022/03/18 13:21:09;;;;;;;9.10;5.60;;;;;;;10.05;30.77;102321.17;214171;1274;140975;-74
2022/03/18 13:26:17;;;;;;;6.00;5.30;;;;;;;10.01;30.89;102317.17;214394;1274;141169;-74
2022/03/18 13:36:46;;;;;;;11.90;6.30;;;;;;;9.80;30.92;102313.23;213955;1274;139391;-76
2022/03/18 13:41:59;;;;;;;12.60;9.30;;;;;;;9.73;30.96;102310.98;213961;1274;139182;-73
2022/03/18 13:47:06;;;;;;;7.10;5.00;;;;;;;9.70;30.99;102315.79;213360;1274;140350;-76
2022/03/18 13:52:12;;;;;;;39.20;9.40;;;;;;;9.57;30.61;102318.49;213816;1271;139245;-74
2022/03/18 13:57:17;;;;;;;9.10;6.20;;;;;;;9.52;30.91;102317.08;214266;1274;139963;-72
2022/03/18 14:02:26;;;;;;;7.10;6.00;;;;;;;9.47;30.89;102310.48;213854;1274;141365;-72
2022/03/18 14:07:49;;;;;;;9.40;6.70;;;;;;;9.44;30.83;102306.73;213122;1274;139912;-74
2022/03/18 14:13:13;;;;;;;7.90;6.10;;;;;;;9.45;30.86;102308.24;213540;1274;138943;-72
2022/03/18 14:18:23;;;;;;;14.40;9.00;;;;;;;9.45;30.79;102309.70;214454;1274;139350;-71
2022/03/18 14:23:32;;;;;;;10.80;5.70;;;;;;;9.45;30.88;102313.04;214987;1273;141185;-72
2022/03/18 14:28:37;;;;;;;9.60;6.60;;;;;;;9.38;30.89;102310.36;213879;1274;247697;-71
2022/03/18 14:33:40;;;;;;;9.90;5.60;;;;;;;9.31;30.57;102312.77;215165;1273;142622;-70
2022/03/18 14:38:46;;;;;;;12.90;6.60;;;;;;;9.22;30.56;102310.27;215340;1276;139567;-75
2022/03/18 14:43:50;;;;;;;12.10;6.70;;;;;;;9.14;30.88;102311.52;215265;1274;141030;-72
2022/03/18 14:48:53;;;;;;;4.90;3.60;;;;;;;9.06;31.01;102317.87;214901;1273;140133;-71
2022/03/18 14:53:57;;;;;;;9.00;5.80;;;;;;;9.04;31.18;102320.42;214482;1274;139090;-76
2022/03/18 14:59:03;;;;;;;8.90;5.30;;;;;;;8.97;31.00;102309.75;215997;1274;140098;-77
2022/03/18 15:04:06;;;;;;;10.00;6.90;;;;;;;8.84;30.63;102308.02;213871;1274;141612;-71
2022/03/18 15:09:10;;;;;;;26.70;12.00;;;;;;;8.78;30.75;102305.64;216093;1274;140616;-73
2022/03/18 15:14:15;;;;;;;20.80;8.40;;;;;;;8.68;30.88;102303.13;215313;1273;139957;-69
2022/03/18 15:19:18;;;;;;;14.60;10.70;;;;;;;8.62;30.63;102306.52;214899;1274;140198;-68
2022/03/18 15:24:25;;;;;;;11.90;7.60;;;;;;;8.57;30.73;102307.33;215807;1276;139636;-74
2022/03/18 15:29:29;;;;;;;12.60;7.00;;;;;;;8.41;30.38;102308.55;213656;1274;139525;-69
2022/03/18 15:34:33;;;;;;;21.10;7.10;;;;;;;8.34;30.59;102309.04;214987;1274;141213;-71
2022/03/18 15:39:36;;;;;;;14.50;9.60;;;;;;;8.28;30.37;102304.36;214977;1274;139930;-69
2022/03/18 15:44:40;;;;;;;11.90;7.70;;;;;;;8.19;30.73;102307.46;213899;1274;140471;-68
2022/03/18 15:49:47;;;;;;;12.60;7.40;;;;;;;8.07;30.67;102316.04;214137;1273;140387;-69
2022/03/18 15:54:52;;;;;;;9.10;6.40;;;;;;;7.93;30.77;102319.13;214718;1272;140293;-69
2022/03/18 15:59:56;;;;;;;7.10;5.30;;;;;;;7.79;30.50;102324.12;213562;1273;139415;-70
2022/03/18 16:05:01;;;;;;;9.10;6.50;;;;;;;7.61;30.95;102325.83;213421;1274;139091;-70
2022/03/18 16:10:07;;;;;;;14.40;6.50;;;;;;;7.43;32.00;102321.13;214376;1274;139371;-70
2022/03/18 16:15:12;;;;;;;29.60;7.80;;;;;;;7.23;31.93;102324.20;214037;1274;139800;-68
2022/03/18 16:20:17;;;;;;;14.00;7.10;;;;;;;7.03;31.95;102331.73;214184;1273;140020;-70
2022/03/18 16:25:26;;;;;;;63.70;27.40;;;;;;;6.83;31.79;102333.86;215033;1274;140642;-73
2022/03/18 16:30:30;;;;;;;102.70;42.80;;;;;;;6.60;32.84;102334.01;214146;1274;140724;-67
2022/03/18 16:35:35;;;;;;;51.40;26.60;;;;;;;6.36;33.56;102334.45;214629;1274;141426;-72
2022/03/18 16:40:42;;;;;;;49.60;22.10;;;;;;;6.10;35.20;102333.95;214640;1273;140424;-72
2022/03/18 16:51:14;;;;;;;28.40;14.90;;;;;;;5.55;36.10;102346.91;214372;1274;140229;-70
2022/03/18 16:56:19;;;;;;;46.70;19.20;;;;;;;5.32;36.87;102352.80;214180;1273;141249;-67
2022/03/18 17:06:45;;;;;;;28.30;16.10;;;;;;;4.76;38.75;102359.63;214765;1273;141393;-71
2022/03/18 17:11:50;;;;;;;26.90;15.20;;;;;;;4.47;39.41;102373.53;215698;1273;141271;-68
2022/03/18 17:16:54;;;;;;;19.20;10.60;;;;;;;4.21;40.14;102383.15;215932;1274;141309;-69
2022/03/18 17:21:59;;;;;;;18.10;10.00;;;;;;;3.83;40.35;102384.88;215992;1272;140658;-68
2022/03/18 17:27:04;;;;;;;25.40;10.80;;;;;;;3.43;40.59;102387.08;215550;1274;140252;-69
2022/03/18 17:32:08;;;;;;;32.20;16.10;;;;;;;3.21;40.87;102386.98;216107;1274;139782;-69
2022/03/18 17:37:15;;;;;;;30.50;19.40;;;;;;;3.11;41.91;102393.36;214910;1274;139727;-70
2022/03/18 17:42:20;;;;;;;27.30;14.50;;;;;;;2.98;42.80;102404.06;213699;1274;139491;-67
2022/03/18 17:47:25;;;;;;;41.50;17.40;;;;;;;2.73;43.18;102407.81;214578;1274;140410;-67
2022/03/18 17:52:29;;;;;;;37.10;19.30;;;;;;;2.51;43.85;102416.20;214211;1274;140468;-75
2022/03/18 17:57:34;;;;;;;32.40;17.30;;;;;;;2.28;44.05;102429.00;214445;1274;139303;-69
2022/03/18 18:02:38;;;;;;;30.00;15.80;;;;;;;2.02;45.01;102445.10;214673;1274;139993;-65
2022/03/18 18:07:43;;;;;;;21.00;12.40;;;;;;;1.79;45.20;102444.17;214641;1273;140270;-69
2022/03/18 18:12:49;;;;;;;27.40;13.40;;;;;;;1.42;45.33;102439.36;213686;1273;139635;-70
2022/03/18 18:17:54;;;;;;;24.50;13.90;;;;;;;1.14;45.81;102446.62;214182;1274;141512;-67
2022/03/18 18:22:58;;;;;;;21.60;11.00;;;;;;;1.03;46.15;102462.40;214336;1274;139255;-69
2022/03/18 18:28:09;;;;;;;32.00;12.40;;;;;;;0.84;46.69;102463.01;213972;1273;140149;-69
2022/03/18 18:33:13;;;;;;;23.90;12.40;;;;;;;0.69;47.48;102462.88;214621;1273;140178;-68
2022/03/18 18:38:18;;;;;;;27.30;13.10;;;;;;;0.48;47.85;102461.99;214278;1272;140915;-67
2022/03/18 18:43:22;;;;;;;21.00;13.80;;;;;;;0.30;48.67;102459.48;214190;1274;141364;-68
2022/03/18 18:48:26;;;;;;;29.50;14.10;;;;;;;0.08;49.20;102452.22;214841;1274;141230;-68
2022/03/18 18:53:31;;;;;;;29.10;14.70;;;;;;;-0.06;49.72;102453.48;214852;1272;165981;-66
2022/03/18 18:58:35;;;;;;;55.20;22.70;;;;;;;-0.25;50.00;102439.18;214601;1274;141835;-67
2022/03/18 19:03:40;;;;;;;45.00;22.10;;;;;;;-0.38;50.15;102435.86;215399;1274;140432;-66
2022/03/18 19:08:45;;;;;;;54.80;25.50;;;;;;;-0.47;50.39;102443.59;215664;1274;141011;-69
2022/03/18 19:13:50;;;;;;;39.10;22.60;;;;;;;-0.44;50.86;102453.51;215561;1274;140557;-70
2022/03/18 19:18:58;;;;;;;37.50;17.70;;;;;;;-0.43;51.34;102455.20;215116;1273;140509;-69
2022/03/18 19:24:04;;;;;;;34.60;20.20;;;;;;;-0.56;51.42;102455.66;216118;1274;140402;-69
2022/03/18 19:29:09;;;;;;;33.60;18.50;;;;;;;-0.75;52.06;102465.10;216197;1274;140584;-69
2022/03/18 19:34:13;;;;;;;33.20;20.00;;;;;;;-0.91;52.26;102468.17;216153;1274;141277;-69
2022/03/18 19:39:17;;;;;;;50.60;23.40;;;;;;;-1.03;52.48;102473.94;215377;1274;139639;-70
2022/03/18 19:44:21;;;;;;;47.80;24.00;;;;;;;-1.07;52.93;102474.72;215467;1274;141755;-67
2022/03/18 19:49:24;;;;;;;67.30;29.10;;;;;;;-1.21;53.75;102478.58;215054;1274;140713;-67
2022/03/18 19:54:28;;;;;;;54.60;28.30;;;;;;;-1.26;54.31;102478.15;214491;1274;140772;-67
2022/03/18 20:05:00;;;;;;;82.70;45.80;;;;;;;-1.47;54.24;102470.98;213248;1274;140149;-69
2022/03/18 20:10:08;;;;;;;87.00;47.20;;;;;;;-1.60;54.47;102470.41;213911;1274;140939;-67
2022/03/18 20:15:15;;;;;;;93.30;46.50;;;;;;;-1.64;54.82;102477.78;213317;1274;140977;-65
2022/03/18 20:20:19;;;;;;;83.70;44.90;;;;;;;-1.66;55.39;102486.63;214147;1274;140690;-66
2022/03/18 20:25:24;;;;;;;115.20;47.40;;;;;;;-1.74;55.53;102486.86;214175;1274;140024;-65
2022/03/18 20:30:30;;;;;;;123.30;50.60;;;;;;;-1.88;55.48;102491.34;214026;1274;140647;-68
2022/03/18 20:35:34;;;;;;;119.50;52.10;;;;;;;-1.96;55.76;102492.00;214330;1273;141373;-67
2022/03/18 20:40:38;;;;;;;110.10;50.00;;;;;;;-2.07;56.14;102491.39;214699;1273;140945;-63
2022/03/18 20:45:41;;;;;;;110.30;49.20;;;;;;;-2.17;56.66;102490.57;213961;1274;141124;-63
2022/03/18 20:50:46;;;;;;;92.70;44.20;;;;;;;-2.18;57.10;102495.16;214737;1276;141076;-67
2022/03/18 20:55:56;;;;;;;101.30;44.00;;;;;;;-2.20;57.35;102491.77;214852;1272;142191;-67
2022/03/18 21:01:01;;;;;;;98.50;44.90;;;;;;;-2.24;57.66;102493.95;214548;1274;143648;-70
2022/03/18 21:06:05;;;;;;;96.30;39.50;;;;;;;-2.24;57.80;102493.07;214659;1274;141093;-72
2022/03/18 21:11:10;;;;;;;91.50;41.90;;;;;;;-2.28;58.12;102497.80;214670;1274;222012;-73
2022/03/18 21:16:14;;;;;;;93.40;43.00;;;;;;;-2.42;58.16;102489.33;214358;1274;231624;-72
2022/03/18 21:21:18;;;;;;;90.30;46.00;;;;;;;-2.59;58.52;102488.72;216101;1274;140407;-75
2022/03/18 21:31:48;;;;;;;91.80;45.90;;;;;;;-2.66;58.98;102495.86;216245;1274;141505;-72
2022/03/18 21:36:52;;;;;;;104.90;49.60;;;;;;;-2.65;59.34;102498.41;216236;1274;141235;-73
2022/03/18 21:41:58;;;;;;;118.50;48.50;;;;;;;-2.70;59.27;102501.48;214186;1273;140232;-72
2022/03/18 21:47:03;;;;;;;110.40;44.20;;;;;;;-2.71;59.58;102507.11;215984;1273;140519;-70
2022/03/18 21:52:07;;;;;;;118.90;45.60;;;;;;;-2.77;59.68;102503.77;213901;1274;141121;-70
2022/03/18 21:57:12;;;;;;;103.30;44.20;;;;;;;-2.94;59.87;102496.68;213792;1274;557047;-68
2022/03/18 22:02:17;;;;;;;104.10;47.30;;;;;;;-3.11;60.23;102497.38;214934;1274;161738;-67
2022/03/18 22:07:23;;;;;;;142.40;54.40;;;;;;;-3.19;60.60;102498.67;215575;1274;140026;-65
2022/03/18 22:12:28;;;;;;;146.20;62.10;;;;;;;-3.28;60.63;102494.77;213894;1274;140373;-68
2022/03/18 22:17:33;;;;;;;155.80;57.50;;;;;;;-3.32;61.08;102499.64;214141;1274;139895;-69
2022/03/18 22:22:40;;;;;;;126.90;52.20;;;;;;;-3.33;61.14;102493.82;214890;1274;139993;-70
2022/03/18 22:27:45;;;;;;;134.20;55.80;;;;;;;-3.45;61.01;102488.17;214091;1273;140597;-69
2022/03/18 22:32:49;;;;;;;131.60;61.70;;;;;;;-3.51;61.25;102486.17;214208;1274;139903;-68
2022/03/18 22:37:54;;;;;;;125.40;60.10;;;;;;;-3.54;61.51;102488.81;214320;1274;139898;-67
2022/03/18 22:42:58;;;;;;;117.60;54.50;;;;;;;-3.55;61.53;102481.88;214526;1273;140508;-65
2022/03/18 22:48:03;;;;;;;135.10;58.90;;;;;;;-3.61;61.56;102477.84;214995;1274;140089;-65
2022/03/18 22:53:08;;;;;;;130.70;59.00;;;;;;;-3.70;61.78;102477.27;214523;1274;140945;-65
2022/03/18 22:58:12;;;;;;;187.60;77.40;;;;;;;-3.77;61.92;102473.96;214676;1274;140771;-64
2022/03/18 23:03:17;;;;;;;185.90;75.50;;;;;;;-3.90;61.92;102465.36;214418;1273;140459;-64
2022/03/18 23:08:25;;;;;;;137.60;59.90;;;;;;;-3.97;62.45;102464.86;215064;1271;140034;-71
2022/03/18 23:13:30;;;;;;;156.40;68.50;;;;;;;-3.97;62.78;102461.58;214373;1273;140665;-72
2022/03/18 23:18:37;;;;;;;155.10;72.70;;;;;;;-3.96;63.04;102463.92;215106;1271;140390;-73
2022/03/18 23:23:43;;;;;;;145.90;67.80;;;;;;;-3.91;63.20;102464.72;215839;1273;139676;-72
2022/03/18 23:28:47;;;;;;;147.60;67.80;;;;;;;-3.88;63.34;102473.95;215944;1273;139789;-78
2022/03/18 23:33:53;;;;;;;118.60;58.70;;;;;;;-3.89;63.27;102475.08;214740;1273;139787;-74
2022/03/18 23:38:58;;;;;;;107.20;55.50;;;;;;;-3.92;63.12;102473.13;215967;1273;141006;-69
2022/03/18 23:44:02;;;;;;;130.20;63.70;;;;;;;-4.09;63.02;102474.80;216304;1273;141996;-76
2022/03/18 23:49:07;;;;;;;121.50;57.90;;;;;;;-4.23;63.14;102473.92;214326;1274;139978;-80
2022/03/18 23:54:12;;;;;;;138.90;59.60;;;;;;;-4.27;63.35;102469.92;214918;1274;140229;-68